createdAt,value
2023-03-05T00:01:18.221Z,97245.31
2023-03-05T00:03:45.542Z,97239.88
2023-03-05T00:06:12.226Z,97243.28
2023-03-05T00:08:38.920Z,97244.22
2023-03-05T00:11:08.777Z,97234.38
2023-03-05T00:13:36.141Z,97238.53
2023-03-05T00:16:05.268Z,97244.38
2023-03-05T00:18:31.806Z,97238.28
2023-03-05T00:20:58.279Z,97237.50
2023-03-05T00:23:25.117Z,97236.16
2023-03-05T00:25:51.695Z,97236.69
2023-03-05T00:28:18.286Z,97236.53
2023-03-05T00:30:44.740Z,97240.63
2023-03-05T00:33:12.561Z,97231.69
2023-03-05T00:35:43.678Z,97227.59
2023-03-05T00:38:11.015Z,97222.53
2023-03-05T00:40:40.638Z,97230.41
2023-03-05T00:43:07.864Z,97225.00
2023-03-05T00:45:34.812Z,97229.22
2023-03-05T00:48:02.019Z,97229.97
2023-03-05T00:50:28.752Z,97227.00
2023-03-05T00:52:55.288Z,97230.59
2023-03-05T00:55:22.030Z,97227.34
2023-03-05T00:57:48.433Z,97221.03
2023-03-05T01:00:15.570Z,97212.44
2023-03-05T01:02:42.207Z,97214.97
2023-03-05T01:05:12.583Z,97209.41
2023-03-05T01:07:39.143Z,97207.25
2023-03-05T01:10:06.969Z,97203.91
2023-03-05T01:12:33.410Z,97207.09
2023-03-05T01:14:59.826Z,97198.69
2023-03-05T01:17:26.994Z,97192.66
2023-03-05T01:19:53.503Z,97196.19
2023-03-05T01:22:20.045Z,97200.19
2023-03-05T01:24:46.470Z,97198.69
2023-03-05T01:27:12.956Z,97190.75
2023-03-05T01:29:39.617Z,97187.03
2023-03-05T01:32:06.393Z,97186.31
2023-03-05T01:34:32.907Z,97185.97
2023-03-05T01:36:59.363Z,97183.91
2023-03-05T01:39:25.798Z,97180.03
2023-03-05T01:41:52.206Z,97178.34
2023-03-05T01:44:24.925Z,97174.94
2023-03-05T01:46:51.673Z,97176.22
2023-03-05T01:49:22.693Z,97171.06
2023-03-05T01:52:08.990Z,97167.31
2023-03-05T01:54:40.408Z,97164.50
2023-03-05T01:57:10.789Z,97166.94
2023-03-05T01:59:40.692Z,97163.81
2023-03-05T02:02:08.137Z,97163.13
2023-03-05T02:04:42.612Z,97163.13
2023-03-05T02:07:10.045Z,97152.72
2023-03-05T02:09:40.980Z,97147.19
2023-03-05T02:12:10.416Z,97144.72
2023-03-05T02:14:37.567Z,97141.25
2023-03-05T02:17:04.152Z,97140.00
2023-03-05T02:19:46.714Z,97131.72
2023-03-05T02:22:18.814Z,97119.31
2023-03-05T02:24:45.334Z,97116.75
2023-03-05T02:27:13.196Z,97122.28
2023-03-05T02:29:42.971Z,97115.41
2023-03-05T02:32:09.746Z,97120.16
2023-03-05T02:34:37.112Z,97119.16
2023-03-05T02:37:04.681Z,97114.69
2023-03-05T02:39:32.059Z,97116.97
2023-03-05T02:41:58.554Z,97118.56
2023-03-05T02:44:25.020Z,97121.66
2023-03-05T02:46:51.539Z,97116.50
2023-03-05T02:49:17.964Z,97121.03
2023-03-05T02:51:47.573Z,97107.06
2023-03-05T02:54:13.999Z,97104.38
2023-03-05T02:56:40.600Z,97106.97
2023-03-05T02:59:07.033Z,97105.75
2023-03-05T03:01:33.522Z,97100.31
2023-03-05T03:04:00.052Z,97085.34
2023-03-05T03:06:26.511Z,97093.56
2023-03-05T03:08:52.939Z,97090.78
2023-03-05T03:11:19.457Z,97091.78
2023-03-05T03:13:45.990Z,97081.78
2023-03-05T03:16:14.570Z,97082.25
2023-03-05T03:18:41.692Z,97072.25
2023-03-05T03:21:08.481Z,97070.69
2023-03-05T03:23:34.999Z,97077.50
2023-03-05T03:26:01.528Z,97076.28
2023-03-05T03:28:27.990Z,97078.47
2023-03-05T03:30:54.434Z,97072.75
2023-03-05T03:33:20.899Z,97077.59
2023-03-05T03:35:47.403Z,97072.03
2023-03-05T03:38:14.003Z,97072.81
2023-03-05T03:40:41.798Z,97066.16
2023-03-05T03:43:08.709Z,97066.97
2023-03-05T03:45:35.242Z,97072.66
2023-03-05T03:48:01.704Z,97061.19
2023-03-05T03:50:28.154Z,97060.31
2023-03-05T03:52:54.589Z,97054.78
2023-03-05T03:55:21.049Z,97061.84
2023-03-05T03:57:47.442Z,97056.47
2023-03-05T04:00:14.650Z,97053.78
2023-03-05T04:02:41.167Z,97054.91
2023-03-05T04:05:08.172Z,97045.84
2023-03-05T04:07:34.573Z,97042.25
2023-03-05T04:10:00.989Z,97043.69
2023-03-05T04:12:27.365Z,97039.06
2023-03-05T04:14:53.783Z,97047.75
2023-03-05T04:17:20.233Z,97043.16
2023-03-05T04:19:46.677Z,97048.63
2023-03-05T04:22:17.534Z,97044.00
2023-03-05T04:24:44.394Z,97041.97
2023-03-05T04:27:11.550Z,97041.25
2023-03-05T04:29:38.397Z,97038.91
2023-03-05T04:32:05.080Z,97040.03
2023-03-05T04:34:32.797Z,97038.69
2023-03-05T04:36:59.302Z,97035.66
2023-03-05T04:39:25.705Z,97037.69
2023-03-05T04:41:52.106Z,97030.72
2023-03-05T04:44:19.163Z,97033.03
2023-03-05T04:46:45.837Z,97031.09
2023-03-05T04:49:12.253Z,97029.00
2023-03-05T04:51:38.651Z,97025.69
2023-03-05T04:54:05.158Z,97022.41
2023-03-05T04:56:31.578Z,97019.44
2023-03-05T04:58:58.707Z,97029.19
2023-03-05T05:01:25.171Z,97022.63
2023-03-05T05:03:51.735Z,97013.19
2023-03-05T05:06:18.104Z,97011.31
2023-03-05T05:08:44.557Z,97006.13
2023-03-05T05:11:14.124Z,97007.28
2023-03-05T05:13:40.577Z,97010.03
2023-03-05T05:16:08.013Z,97007.63
2023-03-05T05:18:34.672Z,97002.94
2023-03-05T05:21:01.118Z,97012.97
2023-03-05T05:23:27.572Z,97010.22
2023-03-05T05:26:01.953Z,97008.75
2023-03-05T05:28:28.784Z,97007.53
2023-03-05T05:30:55.462Z,97008.56
2023-03-05T05:33:22.609Z,97009.44
2023-03-05T05:35:49.720Z,97008.78
2023-03-05T05:38:16.202Z,97008.59
2023-03-05T05:40:43.695Z,97002.66
2023-03-05T05:43:10.127Z,97002.06
2023-03-05T05:45:39.952Z,97005.59
2023-03-05T05:48:07.140Z,97003.97
2023-03-05T05:50:33.801Z,97002.13
2023-03-05T05:53:00.322Z,97010.41
2023-03-05T05:55:26.746Z,97006.66
2023-03-05T05:57:53.251Z,97012.03
2023-03-05T06:00:19.985Z,97015.13
2023-03-05T06:02:46.461Z,97012.91
2023-03-05T06:05:15.012Z,97011.88
2023-03-05T06:07:41.722Z,97003.22
2023-03-05T06:10:09.871Z,97002.72
2023-03-05T06:12:36.602Z,97000.16
2023-03-05T06:15:03.227Z,97002.19
2023-03-05T06:17:31.089Z,97002.47
2023-03-05T06:19:58.463Z,96996.13
2023-03-05T06:22:25.263Z,97000.16
2023-03-05T06:24:51.658Z,96997.38
2023-03-05T06:27:18.212Z,97001.81
2023-03-05T06:29:44.679Z,96999.78
2023-03-05T06:32:11.162Z,96992.22
2023-03-05T06:34:37.690Z,96997.25
2023-03-05T06:37:04.217Z,96994.44
2023-03-05T06:39:31.609Z,96999.50
2023-03-05T06:41:58.345Z,96996.97
2023-03-05T06:44:25.698Z,96994.78
2023-03-05T06:46:52.249Z,97002.59
2023-03-05T06:49:18.658Z,97001.19
2023-03-05T06:51:45.356Z,96998.50
2023-03-05T06:54:14.272Z,96999.47
2023-03-05T06:56:42.536Z,96993.44
2023-03-05T06:59:10.335Z,96991.56
2023-03-05T07:01:37.241Z,96987.19
2023-03-05T07:04:04.389Z,96985.47
2023-03-05T07:06:36.195Z,96984.25
2023-03-05T07:09:04.328Z,96982.56
2023-03-05T07:11:31.541Z,96985.63
2023-03-05T07:13:58.611Z,96993.91
2023-03-05T07:16:28.186Z,96987.44
2023-03-05T07:18:57.398Z,96987.38
2023-03-05T07:21:26.810Z,96984.97
2023-03-05T07:23:54.698Z,96985.31
2023-03-05T07:26:22.311Z,96992.81
2023-03-05T07:28:48.820Z,96989.06
2023-03-05T07:31:21.728Z,96985.25
2023-03-05T07:33:49.788Z,96981.75
2023-03-05T07:36:17.327Z,96983.31
2023-03-05T07:38:43.990Z,96975.00
2023-03-05T07:41:19.659Z,96979.91
2023-03-05T07:43:47.937Z,96975.41
2023-03-05T07:46:15.381Z,96972.41
2023-03-05T07:48:41.928Z,96970.41
2023-03-05T07:51:14.772Z,96977.88
2023-03-05T07:53:43.164Z,96980.94
2023-03-05T07:56:10.254Z,96979.13
2023-03-05T07:58:37.292Z,96983.56
2023-03-05T08:01:04.380Z,96978.34
2023-03-05T08:03:30.807Z,96978.91
2023-03-05T08:05:57.308Z,96978.34
2023-03-05T08:08:23.814Z,96971.50
2023-03-05T08:10:50.305Z,96971.88
2023-03-05T08:13:16.721Z,96975.13
2023-03-05T08:15:43.245Z,96976.31
2023-03-05T08:18:09.731Z,96973.09
2023-03-05T08:20:36.530Z,96965.22
2023-03-05T08:23:03.856Z,96972.28
2023-03-05T08:25:30.545Z,96972.69
2023-03-05T08:27:57.064Z,96966.66
2023-03-05T08:30:27.063Z,96971.28
2023-03-05T08:32:54.274Z,96970.69
2023-03-05T08:35:22.885Z,96971.47
2023-03-05T08:37:49.815Z,96969.84
2023-03-05T08:40:18.120Z,96967.13
2023-03-05T08:42:44.977Z,96969.00
2023-03-05T08:45:12.106Z,96957.44
2023-03-05T08:47:38.567Z,96959.63
2023-03-05T08:50:05.514Z,96967.47
2023-03-05T08:52:31.954Z,96957.44
2023-03-05T08:54:58.366Z,96958.63
2023-03-05T08:57:24.819Z,96961.78
2023-03-05T08:59:51.282Z,96957.25
2023-03-05T09:02:19.004Z,96952.38
2023-03-05T09:04:45.437Z,96954.28
2023-03-05T09:07:12.992Z,96956.91
2023-03-05T09:09:40.301Z,96961.06
2023-03-05T09:12:07.219Z,96956.34
2023-03-05T09:14:33.656Z,96943.69
2023-03-05T09:17:00.031Z,96943.38
2023-03-05T09:19:27.501Z,96944.97
2023-03-05T09:21:56.033Z,96939.06
2023-03-05T09:24:23.465Z,96937.81
2023-03-05T09:26:50.099Z,96935.16
2023-03-05T09:29:16.606Z,96939.66
2023-03-05T09:31:44.130Z,96933.53
2023-03-05T09:34:11.692Z,96929.59
2023-03-05T09:36:38.076Z,96928.53
2023-03-05T09:39:06.907Z,96929.44
2023-03-05T09:41:58.174Z,96929.75
2023-03-05T09:44:43.222Z,96929.75
2023-03-05T09:47:28.508Z,96924.78
2023-03-05T09:50:36.907Z,96917.09
2023-03-05T09:53:18.871Z,96916.34
2023-03-05T09:55:54.473Z,96916.16
2023-03-05T09:58:37.269Z,96912.41
2023-03-05T10:01:10.280Z,96909.19
2023-03-05T10:03:53.374Z,96914.31
2023-03-05T10:06:26.418Z,96914.16
2023-03-05T10:08:55.819Z,96906.84
2023-03-05T10:11:47.143Z,96907.75
2023-03-05T10:14:37.880Z,96902.34
2023-03-05T10:17:27.107Z,96904.44
2023-03-05T10:19:53.469Z,96895.03
2023-03-05T10:22:31.538Z,96894.75
2023-03-05T10:25:17.317Z,96888.75
2023-03-05T10:27:54.998Z,96890.91
2023-03-05T10:30:36.644Z,96891.88
2023-03-05T10:33:18.351Z,96892.38
2023-03-05T10:36:18.089Z,96884.88
2023-03-05T10:39:20.738Z,96875.53
2023-03-05T10:42:20.257Z,96871.97
2023-03-05T10:44:58.471Z,96870.53
2023-03-05T10:47:29.894Z,96864.16
2023-03-05T10:49:58.586Z,96864.22
2023-03-05T10:52:46.541Z,96870.97
2023-03-05T10:55:19.419Z,96863.38
2023-03-05T10:57:47.490Z,96865.19
2023-03-05T11:00:23.661Z,96853.41
2023-03-05T11:03:05.798Z,96850.63
2023-03-05T11:05:38.228Z,96852.03
2023-03-05T11:08:36.410Z,96850.03
2023-03-05T11:11:11.624Z,96846.38
2023-03-05T11:13:53.063Z,96837.28
2023-03-05T11:16:24.917Z,96836.91
2023-03-05T11:19:17.662Z,96824.91
2023-03-05T11:21:45.954Z,96827.69
2023-03-05T11:24:18.784Z,96831.22
2023-03-05T11:26:57.281Z,96824.16
2023-03-05T11:29:31.472Z,96821.19
2023-03-05T11:32:29.159Z,96815.94
2023-03-05T11:34:57.375Z,96809.97
2023-03-05T11:37:30.237Z,96813.44
2023-03-05T11:40:18.241Z,96812.94
2023-03-05T11:42:45.154Z,96804.94
2023-03-05T11:45:18.633Z,96796.81
2023-03-05T11:47:51.394Z,96800.72
2023-03-05T11:50:26.724Z,96797.66
2023-03-05T11:53:07.373Z,96793.66
2023-03-05T11:55:43.956Z,96792.06
2023-03-05T11:58:21.586Z,96779.84
2023-03-05T12:00:50.393Z,96768.31
2023-03-05T12:03:20.879Z,96761.06
2023-03-05T12:05:58.739Z,96767.75
2023-03-05T12:08:33.367Z,96761.16
2023-03-05T12:11:06.185Z,96756.53
2023-03-05T12:13:42.450Z,96758.22
2023-03-05T12:16:14.322Z,96748.97
2023-03-05T12:18:51.874Z,96755.09
2023-03-05T12:21:39.435Z,96741.75
2023-03-05T12:24:26.711Z,96746.56
2023-03-05T12:26:59.492Z,96742.53
2023-03-05T12:29:50.758Z,96739.19
2023-03-05T12:32:25.599Z,96735.97
2023-03-05T12:34:59.385Z,96734.47
2023-03-05T12:37:25.949Z,96730.63
2023-03-05T12:40:12.714Z,96722.09
2023-03-05T12:42:39.219Z,96726.13
2023-03-05T12:45:11.793Z,96720.03
2023-03-05T12:47:40.592Z,96716.19
2023-03-05T12:50:25.583Z,96719.63
2023-03-05T12:52:53.514Z,96717.06
2023-03-05T12:55:23.458Z,96717.91
2023-03-05T12:57:58.089Z,96711.00
2023-03-05T13:00:33.797Z,96710.84
2023-03-05T13:03:04.244Z,96713.78
2023-03-05T13:05:34.079Z,96707.88
2023-03-05T13:08:23.405Z,96712.22
2023-03-05T13:10:59.002Z,96706.59
2023-03-05T13:13:28.465Z,96697.34
2023-03-05T13:15:56.231Z,96703.69
2023-03-05T13:18:32.835Z,96697.22
2023-03-05T13:21:04.701Z,96690.13
2023-03-05T13:23:32.414Z,96686.69
2023-03-05T13:26:15.796Z,96688.59
2023-03-05T13:28:44.904Z,96687.19
2023-03-05T13:31:23.675Z,96679.72
2023-03-05T13:33:56.519Z,96676.06
2023-03-05T13:36:25.816Z,96675.19
2023-03-05T13:38:53.160Z,96677.22
2023-03-05T13:41:24.307Z,96677.22
2023-03-05T13:43:57.570Z,96668.97
2023-03-05T13:46:25.146Z,96677.47
2023-03-05T13:48:51.658Z,96679.88
2023-03-05T13:51:18.069Z,96672.63
2023-03-05T13:53:45.155Z,96677.59
2023-03-05T13:56:17.844Z,96673.25
2023-03-05T13:59:16.729Z,96673.84
2023-03-05T14:01:44.458Z,96669.91
2023-03-05T14:04:13.777Z,96664.66
2023-03-05T14:07:01.432Z,96667.16
2023-03-05T14:09:29.766Z,96657.91
2023-03-05T14:12:00.032Z,96657.22
2023-03-05T14:14:27.917Z,96655.25
2023-03-05T14:16:54.926Z,96655.25
2023-03-05T14:19:34.675Z,96650.97
2023-03-05T14:22:01.951Z,96649.09
2023-03-05T14:24:31.206Z,96648.22
2023-03-05T14:27:03.274Z,96642.09
2023-03-05T14:29:29.917Z,96638.72
2023-03-05T14:32:08.156Z,96635.38
2023-03-05T14:34:42.014Z,96633.78
2023-03-05T14:37:21.840Z,96629.25
2023-03-05T14:39:54.958Z,96625.19
2023-03-05T14:42:27.284Z,96619.50
2023-03-05T14:44:55.850Z,96611.94
2023-03-05T14:47:26.956Z,96618.88
2023-03-05T14:49:53.753Z,96615.47
2023-03-05T14:52:23.740Z,96619.25
2023-03-05T14:54:51.038Z,96611.84
2023-03-05T14:57:23.560Z,96607.97
2023-03-05T14:59:50.305Z,96610.81
2023-03-05T15:02:18.832Z,96600.31
2023-03-05T15:04:47.019Z,96600.91
2023-03-05T15:07:22.495Z,96594.19
2023-03-05T15:09:48.888Z,96597.16
2023-03-05T15:12:16.625Z,96588.34
2023-03-05T15:14:43.754Z,96590.19
2023-03-05T15:17:16.517Z,96584.34
2023-03-05T15:19:42.962Z,96580.72
2023-03-05T15:22:11.795Z,96585.94
2023-03-05T15:24:38.324Z,96582.75
2023-03-05T15:27:05.809Z,96573.16
2023-03-05T15:29:33.583Z,96578.53
2023-03-05T15:32:01.260Z,96575.47
2023-03-05T15:34:28.918Z,96563.56
2023-03-05T15:36:55.861Z,96562.78
2023-03-05T15:39:25.390Z,96562.59
2023-03-05T15:41:53.402Z,96560.56
2023-03-05T15:44:20.582Z,96556.22
2023-03-05T15:46:47.276Z,96546.66
2023-03-05T15:49:14.619Z,96548.13
2023-03-05T15:51:41.059Z,96543.22
2023-03-05T15:54:07.617Z,96543.94
2023-03-05T15:56:34.157Z,96542.34
2023-03-05T15:59:01.332Z,96536.66
2023-03-05T16:01:27.985Z,96535.75
2023-03-05T16:03:54.509Z,96526.44
2023-03-05T16:06:23.919Z,96533.38
2023-03-05T16:08:54.515Z,96528.22
2023-03-05T16:11:21.726Z,96537.41
2023-03-05T16:13:50.623Z,96528.41
2023-03-05T16:16:17.740Z,96525.66
2023-03-05T16:18:47.586Z,96526.56
2023-03-05T16:21:14.523Z,96523.22
2023-03-05T16:23:41.338Z,96526.47
2023-03-05T16:26:10.463Z,96522.13
2023-03-05T16:28:37.111Z,96520.97
2023-03-05T16:31:04.238Z,96518.59
2023-03-05T16:33:30.675Z,96510.97
2023-03-05T16:36:21.106Z,96520.72
2023-03-05T16:38:52.158Z,96516.72
2023-03-05T16:41:21.994Z,96505.91
2023-03-05T16:43:51.304Z,96511.13
2023-03-05T16:46:17.690Z,96506.50
2023-03-05T16:48:44.335Z,96507.66
2023-03-05T16:51:11.808Z,96505.72
2023-03-05T16:53:39.230Z,96496.13
2023-03-05T16:56:07.691Z,96501.44
2023-03-05T16:58:36.378Z,96497.81
2023-03-05T17:01:03.643Z,96494.59
2023-03-05T17:03:30.590Z,96495.06
2023-03-05T17:05:57.013Z,96495.59
2023-03-05T17:08:24.478Z,96489.97
2023-03-05T17:10:51.398Z,96491.84
2023-03-05T17:13:18.050Z,96487.22
2023-03-05T17:15:44.524Z,96485.25
2023-03-05T17:18:12.015Z,96486.06
2023-03-05T17:20:38.427Z,96485.88
2023-03-05T17:23:04.844Z,96486.94
2023-03-05T17:25:31.271Z,96485.75
2023-03-05T17:27:57.675Z,96483.44
2023-03-05T17:30:24.324Z,96489.22
2023-03-05T17:32:53.637Z,96482.63
2023-03-05T17:35:22.538Z,96481.38
2023-03-05T17:37:49.949Z,96487.06
2023-03-05T17:40:17.691Z,96481.25
2023-03-05T17:42:44.337Z,96477.06
2023-03-05T17:45:11.223Z,96469.91
2023-03-05T17:47:37.675Z,96474.91
2023-03-05T17:50:07.429Z,96469.91
2023-03-05T17:52:35.024Z,96473.69
2023-03-05T17:55:01.476Z,96477.19
2023-03-05T17:57:27.865Z,96478.03
2023-03-05T17:59:54.358Z,96482.81
2023-03-05T18:02:20.742Z,96484.44
2023-03-05T18:04:47.956Z,96486.47
2023-03-05T18:07:14.538Z,96480.81
2023-03-05T18:09:40.934Z,96484.00
2023-03-05T18:12:07.410Z,96481.06
2023-03-05T18:14:33.795Z,96476.94
2023-03-05T18:17:00.334Z,96474.53
2023-03-05T18:19:26.827Z,96481.38
2023-03-05T18:21:53.236Z,96472.94
2023-03-05T18:24:19.654Z,96473.94
2023-03-05T18:26:46.215Z,96470.09
2023-03-05T18:29:12.860Z,96472.50
2023-03-05T18:31:39.279Z,96477.75
2023-03-05T18:34:05.694Z,96470.47
2023-03-05T18:36:32.694Z,96472.50
2023-03-05T18:38:59.078Z,96464.94
2023-03-05T18:41:27.963Z,96473.00
2023-03-05T18:43:54.870Z,96471.91
2023-03-05T18:46:21.434Z,96465.28
2023-03-05T18:48:48.144Z,96464.88
2023-03-05T18:51:17.399Z,96461.31
2023-03-05T18:53:44.015Z,96459.72
2023-03-05T18:56:10.716Z,96456.09
2023-03-05T18:58:37.362Z,96460.72
2023-03-05T19:01:04.650Z,96447.50
2023-03-05T19:03:31.079Z,96450.13
2023-03-05T19:05:57.497Z,96455.78
2023-03-05T19:08:24.143Z,96452.16
2023-03-05T19:10:50.593Z,96446.16
2023-03-05T19:13:33.244Z,96447.81
2023-03-05T19:16:02.316Z,96451.84
2023-03-05T19:18:28.817Z,96455.03
2023-03-05T19:20:55.915Z,96458.66
2023-03-05T19:23:22.782Z,96446.19
2023-03-05T19:25:49.227Z,96442.19
2023-03-05T19:28:15.772Z,96435.44
2023-03-05T19:30:42.245Z,96441.53
2023-03-05T19:33:08.990Z,96433.69
2023-03-05T19:35:35.450Z,96432.09
2023-03-05T19:38:01.866Z,96434.53
2023-03-05T19:40:28.439Z,96437.16
2023-03-05T19:42:54.846Z,96430.47
2023-03-05T19:45:21.373Z,96431.34
2023-03-05T19:47:48.052Z,96430.16
2023-03-05T19:50:15.397Z,96429.53
2023-03-05T19:52:41.798Z,96427.13
2023-03-05T19:55:08.731Z,96423.28
2023-03-05T19:57:35.254Z,96419.88
2023-03-05T20:00:01.729Z,96425.09
2023-03-05T20:02:28.273Z,96421.47
2023-03-05T20:04:55.342Z,96430.31
2023-03-05T20:07:21.828Z,96421.09
2023-03-05T20:09:50.289Z,96415.06
2023-03-05T20:12:16.852Z,96415.91
2023-03-05T20:14:43.286Z,96418.31
2023-03-05T20:17:09.788Z,96409.13
2023-03-05T20:19:36.386Z,96414.28
2023-03-05T20:22:02.894Z,96413.09
2023-03-05T20:24:29.400Z,96401.09
2023-03-05T20:26:55.885Z,96408.19
2023-03-05T20:29:22.354Z,96408.88
2023-03-05T20:31:50.008Z,96411.22
2023-03-05T20:34:18.670Z,96397.91
2023-03-05T20:36:45.690Z,96406.34
2023-03-05T20:39:12.515Z,96395.88
2023-03-05T20:41:39.644Z,96397.09
2023-03-05T20:44:07.385Z,96396.31
2023-03-05T20:46:36.823Z,96393.88
2023-03-05T20:49:04.390Z,96395.88
2023-03-05T20:51:34.953Z,96391.53
2023-03-05T20:54:05.025Z,96389.47
2023-03-05T20:56:32.793Z,96386.28
2023-03-05T20:59:01.111Z,96390.31
2023-03-05T21:01:27.913Z,96385.53
2023-03-05T21:03:56.980Z,96391.56
2023-03-05T21:06:24.462Z,96387.16
2023-03-05T21:08:50.890Z,96370.88
2023-03-05T21:11:17.492Z,96383.94
2023-03-05T21:13:44.346Z,96378.94
2023-03-05T21:16:15.710Z,96378.28
2023-03-05T21:18:42.296Z,96375.47
2023-03-05T21:21:08.723Z,96368.44
2023-03-05T21:23:35.299Z,96367.84
2023-03-05T21:26:03.991Z,96364.06
2023-03-05T21:28:31.721Z,96357.03
2023-03-05T21:30:58.193Z,96355.81
2023-03-05T21:33:27.609Z,96350.75
2023-03-05T21:35:54.525Z,96347.56
2023-03-05T21:38:24.791Z,96339.41
2023-03-05T21:40:53.827Z,96334.19
2023-03-05T21:43:23.294Z,96328.19
2023-03-05T21:45:53.396Z,96340.44
2023-03-05T21:48:21.407Z,96331.59
2023-03-05T21:50:48.202Z,96341.88
2023-03-05T21:53:16.590Z,96327.81
2023-03-05T21:55:53.087Z,96327.59
2023-03-05T21:58:19.598Z,96325.78
2023-03-05T22:00:46.080Z,96315.34
2023-03-05T22:03:12.545Z,96315.78
2023-03-05T22:05:42.546Z,96310.97
2023-03-05T22:08:08.922Z,96312.56
2023-03-05T22:10:35.599Z,96308.97
2023-03-05T22:13:09.750Z,96299.72
2023-03-05T22:15:52.930Z,96297.34
2023-03-05T22:18:22.372Z,96288.94
2023-03-05T22:20:49.419Z,96292.00
2023-03-05T22:23:17.770Z,96288.78
2023-03-05T22:25:44.615Z,96293.47
2023-03-05T22:28:12.413Z,96289.47
2023-03-05T22:30:45.922Z,96292.25
2023-03-05T22:33:12.569Z,96279.19
2023-03-05T22:35:40.963Z,96276.16
2023-03-05T22:38:08.046Z,96269.34
2023-03-05T22:40:34.806Z,96272.53
2023-03-05T22:43:01.212Z,96272.13
2023-03-05T22:45:28.834Z,96268.72
2023-03-05T22:47:55.321Z,96272.53
2023-03-05T22:50:21.832Z,96263.09
2023-03-05T22:52:48.369Z,96264.56
2023-03-05T22:55:16.435Z,96266.16
2023-03-05T22:57:44.587Z,96267.75
2023-03-05T23:00:17.830Z,96258.94
2023-03-05T23:02:45.165Z,96255.28
2023-03-05T23:05:11.824Z,96256.88
2023-03-05T23:07:40.371Z,96251.50
2023-03-05T23:10:12.003Z,96250.16
2023-03-05T23:12:41.482Z,96245.72
2023-03-05T23:15:12.160Z,96249.69
2023-03-05T23:17:38.647Z,96240.94
2023-03-05T23:20:08.220Z,96237.72
2023-03-05T23:22:38.666Z,96237.31
2023-03-05T23:25:05.749Z,96236.16
2023-03-05T23:27:32.263Z,96234.91
2023-03-05T23:30:17.337Z,96229.75
2023-03-05T23:32:56.008Z,96226.94
2023-03-05T23:35:42.816Z,96231.78
2023-03-05T23:38:12.465Z,96224.97
2023-03-05T23:40:44.498Z,96219.88
2023-03-05T23:43:11.895Z,96221.47
2023-03-05T23:45:40.191Z,96219.00
2023-03-05T23:48:06.572Z,96214.59
2023-03-05T23:50:35.114Z,96211.03
2023-03-05T23:53:02.484Z,96213.78
2023-03-05T23:55:35.597Z,96214.66
2023-03-05T23:58:03.203Z,96214.38
